DeKalb, Illinois
Current Conditions -  °F | °C
As of 4:35 PM on Monday 24 Nov 2014 (Local Time) from KDKB Reporting Station
Haze Haze  
Wind Chill:   Ceiling: 1100
Heat Index: 24°   Visibility: 4mi
Dew Point: 22°   Wind: 24mph
Humidity: 89%   Direction: 260°W
Pressure: 29.59"   Gusts: 37mph
Location:  41.93°N, 88.75°W
Report Text: KDKB 242235Z AUTO 26021G32KT 4SM BR BKN011 OVC022 M04/M06 A2959 RMK AO2 T10421058
Loading
Personal Weather Stations






























Interactive Weather Map New forecast layout! Learn more

10-Day Weather Forecast

Advertisements
Track Severe Weather on mobile